LEAL METAR and TAF | Updated Today

LEAL METAR

Alicante International Airport

Observation time: 27 min. ago

LEAL 070730Z 28013KT CAVOK 14/06 Q1021 NOSIG

Need help? Read our tutorial on how to read METARs or read the parsed version below.

Alicante International Airport (LEAL) METAR

  • Weather conditions on Tue, 07 Dec 2021 07:30:00 +0000 (27 min. ago):
  • Present conditions: Dry
  • Clouds: Clear skies
  • Visibility: Greater than 10 km
  • Wind: 280 degrees at 13 knots
  • Temperature: 14 celsius
  • Dew point: 6 celsius
  • Pressure: 1021 millibars
  • Remarks: None


Useful to know...

LEAL TAF

Alicante International Airport

TAF LEAL 070500Z 0706/0806 31010KT CAVOK TX20/0712Z TN11/0706Z TEMPO 0706/0709 25004KT BECMG 0710/0712 23010KT
Observation time: 2:57 hr. ago
Need help? Read our tutorial on how to read TAFs or read the parsed version below.

Parsed version of TAF for Alicante International Airport (LEAL)

  • From 07 December at 06:00 UTC, to day 08 of the month at 06:00 UTC
  • Visibility: Greater than 10 km
  • Wind: 310 degrees at 10
  • Expected to arise temporarily, from 07 December at 06:00 UTC, to day 07 of the month at 09:00 UTC
  • Wind: 250 degrees at 4
  • Expected to arise soon, from 07 December at 10:00 UTC, to day 07 of the month at 12:00 UTC
  • Wind: 230 degrees at 10